createdAt,value
2019-05-29T00:05:00.966Z,95.85
2019-05-29T00:15:04.510Z,95.75
2019-05-29T00:25:08.531Z,96.41
2019-05-29T00:35:10.715Z,96.62
2019-05-29T00:45:13.440Z,95.69
2019-05-29T00:55:15.024Z,96.29
2019-05-29T01:05:16.663Z,96.20
2019-05-29T01:15:19.556Z,95.46
2019-05-29T01:25:21.160Z,95.53
2019-05-29T01:35:22.681Z,95.42
2019-05-29T01:45:24.100Z,96.89
2019-05-29T01:55:25.603Z,97.36
2019-05-29T02:05:28.176Z,97.84
2019-05-29T02:15:32.566Z,99.24
2019-05-29T02:25:33.227Z,100.00
2019-05-29T02:35:34.767Z,100.00
2019-05-29T02:45:52.926Z,98.22
2019-05-29T02:55:39.666Z,98.68
2019-05-29T03:05:41.194Z,100.00
2019-05-29T03:15:42.817Z,100.00
2019-05-29T03:25:44.256Z,99.45
2019-05-29T03:35:48.210Z,97.89
2019-05-29T03:45:49.017Z,97.53
2019-05-29T03:55:50.469Z,97.48
2019-05-29T04:05:51.901Z,97.67
2019-05-29T04:15:54.251Z,96.72
2019-05-29T04:25:56.577Z,95.92
2019-05-29T04:35:58.006Z,95.49
2019-05-29T04:45:59.422Z,94.18
2019-05-29T04:56:00.875Z,93.15
2019-05-29T05:06:02.525Z,91.92
2019-05-29T05:16:04.143Z,91.41
2019-05-29T05:26:05.705Z,90.51
2019-05-29T05:36:07.236Z,87.26
2019-05-29T05:46:08.741Z,85.93
2019-05-29T05:56:10.431Z,83.17
2019-05-29T06:06:11.884Z,83.47
2019-05-29T06:16:13.321Z,81.80
2019-05-29T06:26:14.784Z,78.36
2019-05-29T06:36:16.276Z,73.41
2019-05-29T06:46:17.810Z,69.04
2019-05-29T06:56:19.259Z,66.28
2019-05-29T07:06:20.886Z,49.24
2019-05-29T07:16:22.330Z,44.68
2019-05-29T07:26:23.872Z,50.08
2019-05-29T07:36:25.358Z,33.78
2019-05-29T07:46:26.806Z,31.92
2019-05-29T07:56:28.277Z,37.37
2019-05-29T08:06:29.713Z,40.35
2019-05-29T08:16:31.179Z,28.19
2019-05-29T08:26:32.794Z,40.52
2019-05-29T08:36:34.369Z,45.18
2019-05-29T08:46:35.811Z,26.53
2019-05-29T08:56:37.318Z,37.76
2019-05-29T09:06:38.780Z,42.26
2019-05-29T09:16:40.195Z,44.80
2019-05-29T09:26:41.733Z,47.48
2019-05-29T09:36:43.422Z,44.14
2019-05-29T09:46:44.862Z,46.03
2019-05-29T09:56:46.309Z,44.96
2019-05-29T10:06:48.116Z,45.13
2019-05-29T10:16:49.634Z,45.01
2019-05-29T10:26:51.371Z,42.25
2019-05-29T10:36:54.645Z,43.02
2019-05-29T10:46:56.750Z,49.03
2019-05-29T10:56:58.667Z,47.09
2019-05-29T11:07:00.446Z,46.07
2019-05-29T11:17:01.902Z,49.76
2019-05-29T11:27:04.053Z,46.23
2019-05-29T11:37:05.631Z,42.19
2019-05-29T11:47:07.175Z,40.85
2019-05-29T11:57:08.759Z,41.38
2019-05-29T12:07:10.221Z,40.32
2019-05-29T12:17:11.665Z,38.59
2019-05-29T12:27:13.311Z,41.37
2019-05-29T12:37:14.856Z,44.11
2019-05-29T12:47:16.321Z,44.47
2019-05-29T12:57:18.126Z,44.81
2019-05-29T13:07:19.670Z,47.09
2019-05-29T13:17:21.318Z,48.58
2019-05-29T13:27:22.749Z,45.43
2019-05-29T13:37:24.219Z,42.81
2019-05-29T13:47:25.673Z,42.38
2019-05-29T13:57:27.149Z,42.46
2019-05-29T14:07:28.718Z,44.90
2019-05-29T14:17:30.178Z,45.71
2019-05-29T14:27:31.641Z,44.76
2019-05-29T14:37:33.117Z,43.41
2019-05-29T14:47:34.553Z,43.32
2019-05-29T14:57:36.110Z,43.42
2019-05-29T15:07:37.665Z,43.89
2019-05-29T15:17:39.215Z,44.90
2019-05-29T15:27:40.745Z,45.59
2019-05-29T15:37:42.191Z,43.95
2019-05-29T15:47:43.624Z,43.88
2019-05-29T15:57:45.089Z,43.25
2019-05-29T16:07:46.541Z,45.29
2019-05-29T16:17:48.101Z,46.69
2019-05-29T16:27:49.660Z,46.99
2019-05-29T16:37:51.227Z,46.26
2019-05-29T16:47:52.667Z,47.67
2019-05-29T16:57:54.117Z,50.19
2019-05-29T17:07:55.978Z,52.88
2019-05-29T17:17:57.441Z,53.87
2019-05-29T17:27:58.886Z,54.03
2019-05-29T17:38:00.480Z,56.14
2019-05-29T17:48:02.128Z,60.71
2019-05-29T17:58:04.704Z,63.26
2019-05-29T18:08:06.402Z,63.82
2019-05-29T18:18:08.047Z,63.84
2019-05-29T18:28:09.527Z,64.56
2019-05-29T18:38:11.075Z,68.27
2019-05-29T18:48:12.635Z,68.34
2019-05-29T18:58:14.088Z,70.67
2019-05-29T19:08:15.869Z,73.51
2019-05-29T19:18:17.477Z,75.67
2019-05-29T19:28:18.910Z,77.25
2019-05-29T19:38:20.467Z,76.77
2019-05-29T19:48:23.021Z,78.51
2019-05-29T19:58:25.578Z,80.46
2019-05-29T20:08:30.917Z,82.22
2019-05-29T20:18:32.087Z,83.00
2019-05-29T20:28:34.251Z,86.18
2019-05-29T20:38:37.099Z,88.81
2019-05-29T20:48:38.845Z,90.64
2019-05-29T20:58:41.968Z,89.57
2019-05-29T21:08:43.556Z,92.17
2019-05-29T21:18:45.121Z,90.73
2019-05-29T21:28:50.442Z,92.21
2019-05-29T21:38:49.930Z,92.07
2019-05-29T21:48:51.411Z,92.62
2019-05-29T21:59:03.164Z,92.64
2019-05-29T22:08:57.247Z,92.70
2019-05-29T22:19:03.832Z,92.74
2019-05-29T22:29:17.045Z,92.09
2019-05-29T22:39:07.819Z,93.34
2019-05-29T22:49:09.843Z,93.43
2019-05-29T22:59:11.525Z,93.37
2019-05-29T23:09:14.171Z,93.90
2019-05-29T23:19:15.617Z,93.81
2019-05-29T23:29:17.183Z,96.68
2019-05-29T23:39:18.857Z,96.26
2019-05-29T23:49:20.341Z,95.23
2019-05-29T23:59:21.959Z,93.60
